sensor_id;sensor_type;location;lat;lon;timestamp;temperature;humidity
22469;DHT22;11401;50.792;4.352;2023-08-06T00:01:01;19.90;72.60
22469;DHT22;11401;50.792;4.352;2023-08-06T00:03:28;19.90;72.80
22469;DHT22;11401;50.792;4.352;2023-08-06T00:05:55;19.90;72.70
22469;DHT22;11401;50.792;4.352;2023-08-06T00:08:22;19.90;72.80
22469;DHT22;11401;50.792;4.352;2023-08-06T00:10:49;19.90;72.90
22469;DHT22;11401;50.792;4.352;2023-08-06T00:13:16;19.90;72.70
22469;DHT22;11401;50.792;4.352;2023-08-06T00:15:43;20.00;73.10
22469;DHT22;11401;50.792;4.352;2023-08-06T00:18:10;20.00;72.70
22469;DHT22;11401;50.792;4.352;2023-08-06T00:20:40;20.00;72.90
22469;DHT22;11401;50.792;4.352;2023-08-06T00:23:08;20.00;72.80
22469;DHT22;11401;50.792;4.352;2023-08-06T00:25:36;20.00;72.80
22469;DHT22;11401;50.792;4.352;2023-08-06T00:28:03;20.00;72.80
22469;DHT22;11401;50.792;4.352;2023-08-06T00:30:31;20.00;73.00
22469;DHT22;11401;50.792;4.352;2023-08-06T00:32:58;20.00;72.90
22469;DHT22;11401;50.792;4.352;2023-08-06T00:35:25;20.00;72.90
22469;DHT22;11401;50.792;4.352;2023-08-06T00:37:52;19.90;73.00
22469;DHT22;11401;50.792;4.352;2023-08-06T00:40:23;20.00;73.10
22469;DHT22;11401;50.792;4.352;2023-08-06T00:42:50;20.00;73.00
22469;DHT22;11401;50.792;4.352;2023-08-06T00:45:17;20.00;72.80
22469;DHT22;11401;50.792;4.352;2023-08-06T00:47:44;20.10;73.10
22469;DHT22;11401;50.792;4.352;2023-08-06T00:50:12;20.00;72.90
22469;DHT22;11401;50.792;4.352;2023-08-06T00:52:40;20.10;73.10
22469;DHT22;11401;50.792;4.352;2023-08-06T00:55:07;20.00;73.20
22469;DHT22;11401;50.792;4.352;2023-08-06T00:57:35;20.10;73.40
22469;DHT22;11401;50.792;4.352;2023-08-06T01:00:03;20.10;73.40
22469;DHT22;11401;50.792;4.352;2023-08-06T01:02:31;20.00;73.30
22469;DHT22;11401;50.792;4.352;2023-08-06T01:04:58;20.10;73.20
22469;DHT22;11401;50.792;4.352;2023-08-06T01:16:01;20.10;72.90
22469;DHT22;11401;50.792;4.352;2023-08-06T01:18:30;20.00;72.90
22469;DHT22;11401;50.792;4.352;2023-08-06T01:21:00;20.00;73.20
22469;DHT22;11401;50.792;4.352;2023-08-06T01:23:27;20.10;73.10
22469;DHT22;11401;50.792;4.352;2023-08-06T01:31:22;20.10;73.10
22469;DHT22;11401;50.792;4.352;2023-08-06T01:33:53;20.00;73.30
22469;DHT22;11401;50.792;4.352;2023-08-06T01:36:21;20.00;73.50
22469;DHT22;11401;50.792;4.352;2023-08-06T01:38:49;20.00;73.20
22469;DHT22;11401;50.792;4.352;2023-08-06T01:41:18;20.10;73.20
22469;DHT22;11401;50.792;4.352;2023-08-06T01:43:45;20.10;73.20
22469;DHT22;11401;50.792;4.352;2023-08-06T01:46:12;20.10;73.10
22469;DHT22;11401;50.792;4.352;2023-08-06T01:48:39;20.10;72.80
22469;DHT22;11401;50.792;4.352;2023-08-06T01:51:06;20.00;73.00
22469;DHT22;11401;50.792;4.352;2023-08-06T01:53:33;20.00;73.20
22469;DHT22;11401;50.792;4.352;2023-08-06T01:56:01;20.00;72.70
22469;DHT22;11401;50.792;4.352;2023-08-06T01:58:28;20.00;72.80
22469;DHT22;11401;50.792;4.352;2023-08-06T02:00:55;19.90;73.20
22469;DHT22;11401;50.792;4.352;2023-08-06T02:03:23;19.90;73.20
22469;DHT22;11401;50.792;4.352;2023-08-06T02:05:50;19.90;72.90
22469;DHT22;11401;50.792;4.352;2023-08-06T02:08:21;19.90;73.10
22469;DHT22;11401;50.792;4.352;2023-08-06T02:10:48;19.90;72.90
22469;DHT22;11401;50.792;4.352;2023-08-06T02:13:16;19.90;73.00
22469;DHT22;11401;50.792;4.352;2023-08-06T02:15:44;19.90;72.70
22469;DHT22;11401;50.792;4.352;2023-08-06T02:18:11;19.90;72.90
22469;DHT22;11401;50.792;4.352;2023-08-06T02:20:38;19.90;72.90
22469;DHT22;11401;50.792;4.352;2023-08-06T02:23:05;19.80;72.90
22469;DHT22;11401;50.792;4.352;2023-08-06T02:25:32;19.80;73.00
22469;DHT22;11401;50.792;4.352;2023-08-06T02:27:59;19.80;73.20
22469;DHT22;11401;50.792;4.352;2023-08-06T02:30:27;19.90;73.10
22469;DHT22;11401;50.792;4.352;2023-08-06T02:32:55;19.90;73.00
22469;DHT22;11401;50.792;4.352;2023-08-06T02:35:22;19.80;72.90
22469;DHT22;11401;50.792;4.352;2023-08-06T02:37:49;19.80;73.00
22469;DHT22;11401;50.792;4.352;2023-08-06T02:40:16;19.80;73.10
22469;DHT22;11401;50.792;4.352;2023-08-06T02:42:43;19.80;73.20
22469;DHT22;11401;50.792;4.352;2023-08-06T02:45:10;19.80;73.20
22469;DHT22;11401;50.792;4.352;2023-08-06T02:47:37;19.90;73.30
22469;DHT22;11401;50.792;4.352;2023-08-06T02:50:05;19.80;73.00
22469;DHT22;11401;50.792;4.352;2023-08-06T02:52:32;19.80;73.20
22469;DHT22;11401;50.792;4.352;2023-08-06T02:54:59;19.90;73.30
22469;DHT22;11401;50.792;4.352;2023-08-06T02:57:29;19.80;73.10
22469;DHT22;11401;50.792;4.352;2023-08-06T02:59:56;19.80;73.00
22469;DHT22;11401;50.792;4.352;2023-08-06T03:02:24;19.80;73.20
22469;DHT22;11401;50.792;4.352;2023-08-06T03:05:23;19.70;73.00
22469;DHT22;11401;50.792;4.352;2023-08-06T03:07:50;19.70;73.40
22469;DHT22;11401;50.792;4.352;2023-08-06T03:10:22;19.70;73.30
22469;DHT22;11401;50.792;4.352;2023-08-06T03:12:51;19.80;73.20
22469;DHT22;11401;50.792;4.352;2023-08-06T03:15:19;19.80;73.30
22469;DHT22;11401;50.792;4.352;2023-08-06T03:17:47;19.80;73.40
22469;DHT22;11401;50.792;4.352;2023-08-06T03:20:18;19.80;73.20
22469;DHT22;11401;50.792;4.352;2023-08-06T03:22:45;19.80;73.80
22469;DHT22;11401;50.792;4.352;2023-08-06T03:25:12;19.80;72.90
22469;DHT22;11401;50.792;4.352;2023-08-06T03:27:43;19.80;73.20
22469;DHT22;11401;50.792;4.352;2023-08-06T03:30:12;19.80;73.20
22469;DHT22;11401;50.792;4.352;2023-08-06T03:32:40;19.80;73.30
22469;DHT22;11401;50.792;4.352;2023-08-06T03:35:07;19.80;73.70
22469;DHT22;11401;50.792;4.352;2023-08-06T03:37:34;19.90;73.30
22469;DHT22;11401;50.792;4.352;2023-08-06T03:40:01;19.90;73.70
22469;DHT22;11401;50.792;4.352;2023-08-06T03:42:30;19.90;73.30
22469;DHT22;11401;50.792;4.352;2023-08-06T03:44:58;19.90;73.40
22469;DHT22;11401;50.792;4.352;2023-08-06T03:47:26;19.90;73.30
22469;DHT22;11401;50.792;4.352;2023-08-06T03:49:53;19.90;73.50
22469;DHT22;11401;50.792;4.352;2023-08-06T03:52:21;19.80;73.90
22469;DHT22;11401;50.792;4.352;2023-08-06T03:54:48;19.90;74.60
22469;DHT22;11401;50.792;4.352;2023-08-06T03:57:15;19.70;73.60
22469;DHT22;11401;50.792;4.352;2023-08-06T03:59:42;19.60;74.70
22469;DHT22;11401;50.792;4.352;2023-08-06T04:02:22;19.80;74.30
22469;DHT22;11401;50.792;4.352;2023-08-06T04:04:49;19.80;73.50
22469;DHT22;11401;50.792;4.352;2023-08-06T04:07:16;19.90;74.10
22469;DHT22;11401;50.792;4.352;2023-08-06T04:10:03;20.00;73.60
22469;DHT22;11401;50.792;4.352;2023-08-06T04:12:30;20.00;73.50
22469;DHT22;11401;50.792;4.352;2023-08-06T04:14:59;20.00;72.60
22469;DHT22;11401;50.792;4.352;2023-08-06T04:17:26;20.00;73.30
22469;DHT22;11401;50.792;4.352;2023-08-06T04:19:54;20.00;72.70
22469;DHT22;11401;50.792;4.352;2023-08-06T04:22:22;20.00;73.30
22469;DHT22;11401;50.792;4.352;2023-08-06T04:24:49;20.10;72.30
22469;DHT22;11401;50.792;4.352;2023-08-06T04:27:17;20.10;71.80
22469;DHT22;11401;50.792;4.352;2023-08-06T04:29:45;20.10;71.70
22469;DHT22;11401;50.792;4.352;2023-08-06T04:32:12;20.20;72.90
22469;DHT22;11401;50.792;4.352;2023-08-06T04:34:45;20.20;72.10
22469;DHT22;11401;50.792;4.352;2023-08-06T04:37:14;20.30;72.10
22469;DHT22;11401;50.792;4.352;2023-08-06T04:39:41;20.40;71.00
22469;DHT22;11401;50.792;4.352;2023-08-06T04:42:08;20.40;70.70
22469;DHT22;11401;50.792;4.352;2023-08-06T04:44:35;20.30;70.00
22469;DHT22;11401;50.792;4.352;2023-08-06T04:47:02;20.30;70.60
22469;DHT22;11401;50.792;4.352;2023-08-06T04:49:29;20.30;71.50
22469;DHT22;11401;50.792;4.352;2023-08-06T04:51:56;20.30;70.00
22469;DHT22;11401;50.792;4.352;2023-08-06T04:54:23;20.30;70.40
22469;DHT22;11401;50.792;4.352;2023-08-06T04:56:50;20.40;71.30
22469;DHT22;11401;50.792;4.352;2023-08-06T04:59:17;20.30;70.00
22469;DHT22;11401;50.792;4.352;2023-08-06T05:01:44;20.30;70.80
22469;DHT22;11401;50.792;4.352;2023-08-06T05:04:11;20.30;70.60
22469;DHT22;11401;50.792;4.352;2023-08-06T05:06:38;20.10;69.60
22469;DHT22;11401;50.792;4.352;2023-08-06T05:09:05;20.10;71.40
22469;DHT22;11401;50.792;4.352;2023-08-06T05:11:33;20.10;71.00
22469;DHT22;11401;50.792;4.352;2023-08-06T05:14:00;20.00;71.40
22469;DHT22;11401;50.792;4.352;2023-08-06T05:16:27;20.00;72.00
22469;DHT22;11401;50.792;4.352;2023-08-06T05:18:55;20.10;72.20
22469;DHT22;11401;50.792;4.352;2023-08-06T05:21:22;20.10;71.30
22469;DHT22;11401;50.792;4.352;2023-08-06T05:23:49;20.10;71.20
22469;DHT22;11401;50.792;4.352;2023-08-06T05:26:16;20.20;71.30
22469;DHT22;11401;50.792;4.352;2023-08-06T05:28:45;20.10;70.50
22469;DHT22;11401;50.792;4.352;2023-08-06T05:31:12;20.00;70.70
22469;DHT22;11401;50.792;4.352;2023-08-06T05:33:40;20.00;71.10
22469;DHT22;11401;50.792;4.352;2023-08-06T05:36:07;20.10;70.80
22469;DHT22;11401;50.792;4.352;2023-08-06T05:38:34;20.10;70.80
22469;DHT22;11401;50.792;4.352;2023-08-06T05:41:01;20.10;70.70
22469;DHT22;11401;50.792;4.352;2023-08-06T05:43:28;20.00;70.30
22469;DHT22;11401;50.792;4.352;2023-08-06T05:45:55;20.00;71.70
22469;DHT22;11401;50.792;4.352;2023-08-06T05:48:22;20.10;71.40
22469;DHT22;11401;50.792;4.352;2023-08-06T05:50:52;20.00;70.20
22469;DHT22;11401;50.792;4.352;2023-08-06T05:53:19;20.00;70.90
22469;DHT22;11401;50.792;4.352;2023-08-06T05:55:46;20.00;71.20
22469;DHT22;11401;50.792;4.352;2023-08-06T05:58:13;19.90;70.70
22469;DHT22;11401;50.792;4.352;2023-08-06T06:00:40;19.90;72.00
22469;DHT22;11401;50.792;4.352;2023-08-06T06:03:08;19.90;70.90
22469;DHT22;11401;50.792;4.352;2023-08-06T06:05:37;19.90;71.40
22469;DHT22;11401;50.792;4.352;2023-08-06T06:08:05;20.10;71.50
22469;DHT22;11401;50.792;4.352;2023-08-06T06:10:32;20.00;70.50
22469;DHT22;11401;50.792;4.352;2023-08-06T06:12:59;20.00;71.30
22469;DHT22;11401;50.792;4.352;2023-08-06T06:15:27;20.00;71.30
22469;DHT22;11401;50.792;4.352;2023-08-06T06:17:54;20.10;71.30
22469;DHT22;11401;50.792;4.352;2023-08-06T06:20:21;20.10;70.40
22469;DHT22;11401;50.792;4.352;2023-08-06T06:22:48;20.00;70.30
22469;DHT22;11401;50.792;4.352;2023-08-06T06:25:15;19.90;71.10
22469;DHT22;11401;50.792;4.352;2023-08-06T06:27:42;19.80;70.60
22469;DHT22;11401;50.792;4.352;2023-08-06T06:30:10;19.70;72.00
22469;DHT22;11401;50.792;4.352;2023-08-06T06:32:38;19.80;71.50
22469;DHT22;11401;50.792;4.352;2023-08-06T06:35:08;19.70;71.20
22469;DHT22;11401;50.792;4.352;2023-08-06T06:37:35;19.70;72.00
22469;DHT22;11401;50.792;4.352;2023-08-06T06:40:02;19.70;71.80
22469;DHT22;11401;50.792;4.352;2023-08-06T06:42:30;19.70;71.20
22469;DHT22;11401;50.792;4.352;2023-08-06T06:45:00;19.70;71.50
22469;DHT22;11401;50.792;4.352;2023-08-06T06:47:27;19.70;71.50
22469;DHT22;11401;50.792;4.352;2023-08-06T06:49:54;19.70;71.50
22469;DHT22;11401;50.792;4.352;2023-08-06T06:52:21;19.60;71.40
22469;DHT22;11401;50.792;4.352;2023-08-06T06:54:48;19.60;72.10
22469;DHT22;11401;50.792;4.352;2023-08-06T06:57:15;19.60;72.00
22469;DHT22;11401;50.792;4.352;2023-08-06T06:59:42;19.60;72.00
22469;DHT22;11401;50.792;4.352;2023-08-06T07:02:09;19.50;71.70
22469;DHT22;11401;50.792;4.352;2023-08-06T07:04:36;19.40;72.30
22469;DHT22;11401;50.792;4.352;2023-08-06T07:07:04;19.40;72.90
22469;DHT22;11401;50.792;4.352;2023-08-06T07:09:30;19.40;72.60
22469;DHT22;11401;50.792;4.352;2023-08-06T07:11:58;19.40;72.70
22469;DHT22;11401;50.792;4.352;2023-08-06T07:14:26;19.60;72.40
22469;DHT22;11401;50.792;4.352;2023-08-06T07:16:53;19.70;71.40
22469;DHT22;11401;50.792;4.352;2023-08-06T07:19:20;19.70;72.30
22469;DHT22;11401;50.792;4.352;2023-08-06T07:21:47;19.70;70.90
22469;DHT22;11401;50.792;4.352;2023-08-06T07:24:14;19.70;71.30
22469;DHT22;11401;50.792;4.352;2023-08-06T07:26:41;19.70;72.00
22469;DHT22;11401;50.792;4.352;2023-08-06T07:29:08;19.70;71.60
22469;DHT22;11401;50.792;4.352;2023-08-06T07:31:35;19.70;72.10
22469;DHT22;11401;50.792;4.352;2023-08-06T07:34:03;19.70;71.20
22469;DHT22;11401;50.792;4.352;2023-08-06T07:36:30;19.70;71.90
22469;DHT22;11401;50.792;4.352;2023-08-06T07:38:57;19.60;71.60
22469;DHT22;11401;50.792;4.352;2023-08-06T07:41:25;19.60;72.30
22469;DHT22;11401;50.792;4.352;2023-08-06T07:43:52;19.70;71.30
22469;DHT22;11401;50.792;4.352;2023-08-06T07:46:19;19.70;72.30
22469;DHT22;11401;50.792;4.352;2023-08-06T07:48:46;19.70;70.80
22469;DHT22;11401;50.792;4.352;2023-08-06T07:51:13;19.50;71.00
22469;DHT22;11401;50.792;4.352;2023-08-06T07:53:40;19.50;71.60
22469;DHT22;11401;50.792;4.352;2023-08-06T07:56:07;19.50;72.10
22469;DHT22;11401;50.792;4.352;2023-08-06T07:58:34;19.50;70.90
22469;DHT22;11401;50.792;4.352;2023-08-06T08:01:01;19.50;71.40
22469;DHT22;11401;50.792;4.352;2023-08-06T08:03:31;19.60;71.50
22469;DHT22;11401;50.792;4.352;2023-08-06T08:05:58;19.60;71.20
22469;DHT22;11401;50.792;4.352;2023-08-06T08:08:25;19.60;71.20
22469;DHT22;11401;50.792;4.352;2023-08-06T08:10:54;19.60;71.90
22469;DHT22;11401;50.792;4.352;2023-08-06T08:13:22;19.70;72.00
22469;DHT22;11401;50.792;4.352;2023-08-06T08:15:49;19.60;71.10
22469;DHT22;11401;50.792;4.352;2023-08-06T08:18:16;19.60;71.20
22469;DHT22;11401;50.792;4.352;2023-08-06T08:20:43;19.60;71.50
22469;DHT22;11401;50.792;4.352;2023-08-06T08:23:10;19.60;70.90
22469;DHT22;11401;50.792;4.352;2023-08-06T08:25:37;19.60;71.80
22469;DHT22;11401;50.792;4.352;2023-08-06T08:28:04;19.60;71.60
22469;DHT22;11401;50.792;4.352;2023-08-06T08:30:32;19.60;71.50
22469;DHT22;11401;50.792;4.352;2023-08-06T08:32:59;19.80;71.50
22469;DHT22;11401;50.792;4.352;2023-08-06T08:35:26;19.80;71.00
22469;DHT22;11401;50.792;4.352;2023-08-06T08:37:53;19.70;70.90
22469;DHT22;11401;50.792;4.352;2023-08-06T08:40:26;19.70;70.80
22469;DHT22;11401;50.792;4.352;2023-08-06T08:42:59;19.60;71.30
22469;DHT22;11401;50.792;4.352;2023-08-06T08:45:29;19.70;72.10
22469;DHT22;11401;50.792;4.352;2023-08-06T08:47:56;19.70;70.80
22469;DHT22;11401;50.792;4.352;2023-08-06T08:50:23;19.50;70.60
22469;DHT22;11401;50.792;4.352;2023-08-06T08:52:51;19.50;70.60
22469;DHT22;11401;50.792;4.352;2023-08-06T08:55:18;19.50;70.70
22469;DHT22;11401;50.792;4.352;2023-08-06T08:57:48;19.50;70.50
22469;DHT22;11401;50.792;4.352;2023-08-06T09:00:15;19.50;69.90
22469;DHT22;11401;50.792;4.352;2023-08-06T09:02:42;19.50;69.80
22469;DHT22;11401;50.792;4.352;2023-08-06T09:05:11;19.50;70.60
22469;DHT22;11401;50.792;4.352;2023-08-06T09:07:42;19.50;70.10
22469;DHT22;11401;50.792;4.352;2023-08-06T09:10:14;19.50;70.30
22469;DHT22;11401;50.792;4.352;2023-08-06T09:12:45;19.50;70.80
22469;DHT22;11401;50.792;4.352;2023-08-06T09:15:12;19.50;70.40
22469;DHT22;11401;50.792;4.352;2023-08-06T09:17:40;19.50;70.80
22469;DHT22;11401;50.792;4.352;2023-08-06T09:20:14;19.50;70.80
22469;DHT22;11401;50.792;4.352;2023-08-06T09:22:42;19.50;70.30
22469;DHT22;11401;50.792;4.352;2023-08-06T09:25:09;19.40;70.90
22469;DHT22;11401;50.792;4.352;2023-08-06T09:27:37;19.30;70.80
22469;DHT22;11401;50.792;4.352;2023-08-06T09:30:06;19.40;71.50
22469;DHT22;11401;50.792;4.352;2023-08-06T09:32:49;19.40;71.40
22469;DHT22;11401;50.792;4.352;2023-08-06T09:35:19;19.50;70.80
22469;DHT22;11401;50.792;4.352;2023-08-06T09:37:46;19.40;70.40
22469;DHT22;11401;50.792;4.352;2023-08-06T09:42:51;19.40;71.60
22469;DHT22;11401;50.792;4.352;2023-08-06T09:45:18;19.40;71.20
22469;DHT22;11401;50.792;4.352;2023-08-06T09:47:46;19.20;71.90
22469;DHT22;11401;50.792;4.352;2023-08-06T09:50:20;19.20;72.80
22469;DHT22;11401;50.792;4.352;2023-08-06T09:52:47;19.10;72.80
22469;DHT22;11401;50.792;4.352;2023-08-06T09:55:18;19.10;73.10
22469;DHT22;11401;50.792;4.352;2023-08-06T09:57:49;19.30;73.70
22469;DHT22;11401;50.792;4.352;2023-08-06T10:00:17;19.40;71.90
22469;DHT22;11401;50.792;4.352;2023-08-06T10:02:46;19.30;72.10
22469;DHT22;11401;50.792;4.352;2023-08-06T10:05:14;19.20;72.30
22469;DHT22;11401;50.792;4.352;2023-08-06T10:07:43;19.20;72.30
22469;DHT22;11401;50.792;4.352;2023-08-06T10:10:11;19.20;72.80
22469;DHT22;11401;50.792;4.352;2023-08-06T10:12:50;19.00;72.50
22469;DHT22;11401;50.792;4.352;2023-08-06T10:15:24;19.20;73.50
22469;DHT22;11401;50.792;4.352;2023-08-06T10:17:54;19.20;72.00
22469;DHT22;11401;50.792;4.352;2023-08-06T10:20:23;19.20;71.50
22469;DHT22;11401;50.792;4.352;2023-08-06T10:23:03;19.00;72.40
22469;DHT22;11401;50.792;4.352;2023-08-06T10:25:32;19.00;72.60
22469;DHT22;11401;50.792;4.352;2023-08-06T10:28:00;19.10;72.30
22469;DHT22;11401;50.792;4.352;2023-08-06T10:30:32;19.10;72.00
22469;DHT22;11401;50.792;4.352;2023-08-06T10:33:02;19.10;72.60
22469;DHT22;11401;50.792;4.352;2023-08-06T10:35:45;19.00;71.70
22469;DHT22;11401;50.792;4.352;2023-08-06T10:38:25;19.00;72.50
22469;DHT22;11401;50.792;4.352;2023-08-06T10:43:27;19.20;72.30
22469;DHT22;11401;50.792;4.352;2023-08-06T10:45:56;19.10;71.10
22469;DHT22;11401;50.792;4.352;2023-08-06T10:48:45;19.00;72.00
22469;DHT22;11401;50.792;4.352;2023-08-06T10:51:14;18.90;71.20
22469;DHT22;11401;50.792;4.352;2023-08-06T10:53:46;18.90;72.10
22469;DHT22;11401;50.792;4.352;2023-08-06T10:56:17;18.90;71.50
22469;DHT22;11401;50.792;4.352;2023-08-06T10:58:47;19.10;71.10
22469;DHT22;11401;50.792;4.352;2023-08-06T11:01:14;19.20;70.60
22469;DHT22;11401;50.792;4.352;2023-08-06T11:03:43;19.20;70.50
22469;DHT22;11401;50.792;4.352;2023-08-06T11:06:11;19.30;71.30
22469;DHT22;11401;50.792;4.352;2023-08-06T11:08:48;19.40;69.70
22469;DHT22;11401;50.792;4.352;2023-08-06T11:11:16;19.40;70.00
22469;DHT22;11401;50.792;4.352;2023-08-06T11:13:45;19.40;69.80
22469;DHT22;11401;50.792;4.352;2023-08-06T11:16:14;19.50;70.10
22469;DHT22;11401;50.792;4.352;2023-08-06T11:18:42;19.50;69.40
22469;DHT22;11401;50.792;4.352;2023-08-06T11:21:09;19.60;69.00
22469;DHT22;11401;50.792;4.352;2023-08-06T11:23:36;19.60;67.60
22469;DHT22;11401;50.792;4.352;2023-08-06T11:26:03;19.50;69.00
22469;DHT22;11401;50.792;4.352;2023-08-06T11:28:30;19.50;68.80
22469;DHT22;11401;50.792;4.352;2023-08-06T11:30:58;19.50;68.80
22469;DHT22;11401;50.792;4.352;2023-08-06T11:33:29;19.40;67.40
22469;DHT22;11401;50.792;4.352;2023-08-06T11:35:57;19.40;68.80
22469;DHT22;11401;50.792;4.352;2023-08-06T11:38:28;19.50;68.80
22469;DHT22;11401;50.792;4.352;2023-08-06T11:40:56;19.60;69.60
22469;DHT22;11401;50.792;4.352;2023-08-06T11:43:23;19.60;67.90
22469;DHT22;11401;50.792;4.352;2023-08-06T11:45:50;19.50;68.00
22469;DHT22;11401;50.792;4.352;2023-08-06T11:48:19;19.60;70.40
22469;DHT22;11401;50.792;4.352;2023-08-06T11:50:46;19.70;69.80
22469;DHT22;11401;50.792;4.352;2023-08-06T11:53:14;19.70;69.10
22469;DHT22;11401;50.792;4.352;2023-08-06T11:55:41;19.70;70.10
22469;DHT22;11401;50.792;4.352;2023-08-06T11:58:10;19.60;70.00
22469;DHT22;11401;50.792;4.352;2023-08-06T12:00:39;19.50;70.00
22469;DHT22;11401;50.792;4.352;2023-08-06T12:03:06;19.40;70.50
22469;DHT22;11401;50.792;4.352;2023-08-06T12:05:33;19.40;70.80
22469;DHT22;11401;50.792;4.352;2023-08-06T12:08:02;19.30;71.40
22469;DHT22;11401;50.792;4.352;2023-08-06T12:10:31;19.30;71.80
22469;DHT22;11401;50.792;4.352;2023-08-06T12:13:00;19.30;72.00
22469;DHT22;11401;50.792;4.352;2023-08-06T12:15:27;19.40;72.00
22469;DHT22;11401;50.792;4.352;2023-08-06T12:17:56;19.30;71.80
22469;DHT22;11401;50.792;4.352;2023-08-06T12:20:23;19.20;72.10
22469;DHT22;11401;50.792;4.352;2023-08-06T12:22:51;19.20;72.40
22469;DHT22;11401;50.792;4.352;2023-08-06T12:25:18;19.30;72.20
22469;DHT22;11401;50.792;4.352;2023-08-06T12:27:46;19.20;72.60
22469;DHT22;11401;50.792;4.352;2023-08-06T12:30:13;19.20;72.60
22469;DHT22;11401;50.792;4.352;2023-08-06T12:32:40;19.30;73.40
22469;DHT22;11401;50.792;4.352;2023-08-06T12:35:08;19.30;72.90
22469;DHT22;11401;50.792;4.352;2023-08-06T12:37:35;19.40;72.50
22469;DHT22;11401;50.792;4.352;2023-08-06T12:40:03;19.40;72.00
22469;DHT22;11401;50.792;4.352;2023-08-06T12:42:50;19.40;72.00
22469;DHT22;11401;50.792;4.352;2023-08-06T12:45:18;19.50;71.60
22469;DHT22;11401;50.792;4.352;2023-08-06T12:47:48;19.60;71.80
22469;DHT22;11401;50.792;4.352;2023-08-06T12:50:16;19.60;71.40
22469;DHT22;11401;50.792;4.352;2023-08-06T12:52:44;19.60;72.20
22469;DHT22;11401;50.792;4.352;2023-08-06T12:55:11;19.60;72.00
22469;DHT22;11401;50.792;4.352;2023-08-06T12:57:38;19.70;72.50
22469;DHT22;11401;50.792;4.352;2023-08-06T13:00:23;19.60;72.00
22469;DHT22;11401;50.792;4.352;2023-08-06T13:02:51;19.50;71.60
22469;DHT22;11401;50.792;4.352;2023-08-06T13:05:18;19.60;72.10
22469;DHT22;11401;50.792;4.352;2023-08-06T13:07:45;19.50;71.90
22469;DHT22;11401;50.792;4.352;2023-08-06T13:10:12;19.60;72.10
22469;DHT22;11401;50.792;4.352;2023-08-06T13:12:39;19.50;72.30
22469;DHT22;11401;50.792;4.352;2023-08-06T13:15:07;19.50;72.10
22469;DHT22;11401;50.792;4.352;2023-08-06T13:17:34;19.40;72.00
22469;DHT22;11401;50.792;4.352;2023-08-06T13:20:01;19.50;72.50
22469;DHT22;11401;50.792;4.352;2023-08-06T13:22:28;19.50;72.10
22469;DHT22;11401;50.792;4.352;2023-08-06T13:24:55;19.50;72.70
22469;DHT22;11401;50.792;4.352;2023-08-06T13:27:22;19.30;71.70
22469;DHT22;11401;50.792;4.352;2023-08-06T13:29:49;19.40;72.70
22469;DHT22;11401;50.792;4.352;2023-08-06T13:32:16;19.50;72.50
22469;DHT22;11401;50.792;4.352;2023-08-06T13:34:43;19.50;71.70
22469;DHT22;11401;50.792;4.352;2023-08-06T13:37:11;19.50;71.80
22469;DHT22;11401;50.792;4.352;2023-08-06T13:39:38;19.50;71.30
22469;DHT22;11401;50.792;4.352;2023-08-06T13:42:05;19.50;72.40
22469;DHT22;11401;50.792;4.352;2023-08-06T13:44:32;19.50;72.10
22469;DHT22;11401;50.792;4.352;2023-08-06T13:47:02;19.60;72.50
22469;DHT22;11401;50.792;4.352;2023-08-06T13:49:29;19.60;71.50
22469;DHT22;11401;50.792;4.352;2023-08-06T13:51:56;19.50;70.00
22469;DHT22;11401;50.792;4.352;2023-08-06T13:54:41;19.60;71.20
22469;DHT22;11401;50.792;4.352;2023-08-06T13:57:08;19.80;71.30
22469;DHT22;11401;50.792;4.352;2023-08-06T13:59:36;19.70;69.80
22469;DHT22;11401;50.792;4.352;2023-08-06T14:02:03;19.80;70.30
22469;DHT22;11401;50.792;4.352;2023-08-06T14:04:30;19.90;69.80
22469;DHT22;11401;50.792;4.352;2023-08-06T14:06:57;19.70;69.10
22469;DHT22;11401;50.792;4.352;2023-08-06T14:09:24;19.70;70.50
22469;DHT22;11401;50.792;4.352;2023-08-06T14:11:52;19.60;69.60
22469;DHT22;11401;50.792;4.352;2023-08-06T14:14:19;19.70;70.50
22469;DHT22;11401;50.792;4.352;2023-08-06T14:16:53;19.70;69.50
22469;DHT22;11401;50.792;4.352;2023-08-06T14:19:21;19.80;69.50
22469;DHT22;11401;50.792;4.352;2023-08-06T14:21:49;19.90;69.50
22469;DHT22;11401;50.792;4.352;2023-08-06T14:24:18;19.80;68.90
22469;DHT22;11401;50.792;4.352;2023-08-06T14:26:45;19.90;70.40
22469;DHT22;11401;50.792;4.352;2023-08-06T14:29:13;19.70;68.90
22469;DHT22;11401;50.792;4.352;2023-08-06T14:31:41;19.60;70.50
22469;DHT22;11401;50.792;4.352;2023-08-06T14:34:08;19.60;69.80
22469;DHT22;11401;50.792;4.352;2023-08-06T14:36:35;19.60;69.10
22469;DHT22;11401;50.792;4.352;2023-08-06T14:39:02;19.70;68.80
22469;DHT22;11401;50.792;4.352;2023-08-06T14:41:29;19.70;69.70
22469;DHT22;11401;50.792;4.352;2023-08-06T14:43:56;19.70;69.20
22469;DHT22;11401;50.792;4.352;2023-08-06T14:46:23;19.70;70.20
22469;DHT22;11401;50.792;4.352;2023-08-06T14:48:51;19.70;70.00
22469;DHT22;11401;50.792;4.352;2023-08-06T14:51:18;19.70;69.30
22469;DHT22;11401;50.792;4.352;2023-08-06T14:53:48;19.70;69.80
22469;DHT22;11401;50.792;4.352;2023-08-06T14:56:15;19.70;69.60
22469;DHT22;11401;50.792;4.352;2023-08-06T14:58:42;19.70;69.80
22469;DHT22;11401;50.792;4.352;2023-08-06T15:01:09;19.70;70.20
22469;DHT22;11401;50.792;4.352;2023-08-06T15:03:37;19.70;70.00
22469;DHT22;11401;50.792;4.352;2023-08-06T15:06:04;19.70;70.10
22469;DHT22;11401;50.792;4.352;2023-08-06T15:08:31;19.80;70.00
22469;DHT22;11401;50.792;4.352;2023-08-06T15:10:58;19.70;70.90
22469;DHT22;11401;50.792;4.352;2023-08-06T15:13:29;19.80;69.90
22469;DHT22;11401;50.792;4.352;2023-08-06T15:15:57;19.70;69.70
22469;DHT22;11401;50.792;4.352;2023-08-06T15:18:24;19.70;70.20
22469;DHT22;11401;50.792;4.352;2023-08-06T15:20:51;19.70;70.20
22469;DHT22;11401;50.792;4.352;2023-08-06T15:23:18;19.70;70.00
22469;DHT22;11401;50.792;4.352;2023-08-06T15:25:45;19.80;70.60
22469;DHT22;11401;50.792;4.352;2023-08-06T15:28:12;19.90;70.20
22469;DHT22;11401;50.792;4.352;2023-08-06T15:30:39;19.90;70.10
22469;DHT22;11401;50.792;4.352;2023-08-06T15:33:07;20.00;70.00
22469;DHT22;11401;50.792;4.352;2023-08-06T15:35:34;20.00;69.70
22469;DHT22;11401;50.792;4.352;2023-08-06T15:38:01;20.10;69.30
22469;DHT22;11401;50.792;4.352;2023-08-06T15:40:28;20.10;68.70
22469;DHT22;11401;50.792;4.352;2023-08-06T15:42:55;20.10;69.60
22469;DHT22;11401;50.792;4.352;2023-08-06T15:45:22;20.20;69.40
22469;DHT22;11401;50.792;4.352;2023-08-06T15:47:49;20.30;68.40
22469;DHT22;11401;50.792;4.352;2023-08-06T15:50:16;20.40;66.90
22469;DHT22;11401;50.792;4.352;2023-08-06T15:52:43;20.40;67.80
22469;DHT22;11401;50.792;4.352;2023-08-06T15:55:10;20.40;68.00